createdAt,value
2022-08-23T00:02:26.926Z,5.40
2022-08-23T00:05:07.401Z,6.00
2022-08-23T00:07:38.854Z,5.70
2022-08-23T00:10:08.676Z,5.70
2022-08-23T00:12:36.250Z,5.57
2022-08-23T00:15:05.760Z,5.53
2022-08-23T00:17:35.485Z,6.17
2022-08-23T00:20:03.358Z,6.10
2022-08-23T00:22:31.008Z,5.93
2022-08-23T00:24:59.988Z,5.90
2022-08-23T00:27:28.469Z,5.07
2022-08-23T00:29:58.212Z,5.87
2022-08-23T00:32:28.628Z,4.87
2022-08-23T00:34:56.966Z,5.20
2022-08-23T00:37:24.735Z,5.40
2022-08-23T00:39:52.398Z,5.40
2022-08-23T00:42:51.453Z,5.27
2022-08-23T00:45:41.736Z,5.60
2022-08-23T00:48:09.644Z,5.00
2022-08-23T00:50:42.042Z,6.03
2022-08-23T00:53:16.041Z,4.80
2022-08-23T00:55:47.452Z,4.80
2022-08-23T00:58:18.400Z,5.03
2022-08-23T01:00:46.057Z,6.03
2022-08-23T01:03:14.677Z,5.93
2022-08-23T01:05:48.340Z,5.67
2022-08-23T01:08:16.713Z,5.00
2022-08-23T01:10:50.659Z,5.57
2022-08-23T01:13:24.609Z,5.40
2022-08-23T01:15:57.296Z,5.20
2022-08-23T01:18:27.457Z,4.87
2022-08-23T01:21:01.097Z,5.30
2022-08-23T01:23:37.762Z,5.70
2022-08-23T01:26:07.155Z,6.43
2022-08-23T01:28:35.825Z,5.23
2022-08-23T01:31:06.525Z,5.50
2022-08-23T01:33:34.673Z,4.90
2022-08-23T01:36:04.209Z,6.30
2022-08-23T01:38:38.810Z,5.30
2022-08-23T01:41:07.212Z,6.00
2022-08-23T01:43:35.190Z,5.50
2022-08-23T01:46:10.649Z,5.50
2022-08-23T01:48:39.856Z,4.97
2022-08-23T01:51:07.725Z,5.70
2022-08-23T01:53:35.665Z,5.83
2022-08-23T01:56:05.741Z,5.70
2022-08-23T01:58:34.248Z,5.53
2022-08-23T02:01:04.667Z,5.73
2022-08-23T02:03:33.441Z,6.10
2022-08-23T02:06:01.400Z,5.70
2022-08-23T02:08:46.441Z,6.33
2022-08-23T02:11:22.540Z,5.90
2022-08-23T02:13:51.826Z,5.87
2022-08-23T02:16:24.624Z,5.90
2022-08-23T02:18:53.183Z,5.97
2022-08-23T02:21:20.977Z,6.13
2022-08-23T02:23:48.806Z,7.13
2022-08-23T02:26:17.812Z,6.80
2022-08-23T02:28:45.858Z,6.10
2022-08-23T02:31:14.575Z,5.63
2022-08-23T02:33:42.273Z,6.20
2022-08-23T02:36:10.170Z,6.33
2022-08-23T02:38:37.804Z,6.37
2022-08-23T02:41:05.552Z,6.10
2022-08-23T02:43:40.957Z,6.30
2022-08-23T02:46:08.902Z,6.40
2022-08-23T02:48:37.615Z,6.20
2022-08-23T02:51:08.117Z,6.63
2022-08-23T02:53:36.507Z,5.47
2022-08-23T02:56:04.797Z,6.73
2022-08-23T02:58:33.733Z,5.33
2022-08-23T03:01:02.025Z,5.60
2022-08-23T03:03:29.700Z,5.90
2022-08-23T03:06:24.505Z,5.80
2022-08-23T03:08:48.685Z,5.37
2022-08-23T03:11:20.811Z,6.60
2022-08-23T03:13:50.877Z,7.17
2022-08-23T03:16:18.665Z,6.67
2022-08-23T03:18:46.653Z,6.53
2022-08-23T03:21:14.530Z,5.53
2022-08-23T03:23:42.477Z,7.20
2022-08-23T03:26:11.914Z,7.00
2022-08-23T03:28:41.436Z,6.03
2022-08-23T03:31:11.286Z,6.40
2022-08-23T03:33:39.640Z,6.40
2022-08-23T03:36:09.417Z,5.63
2022-08-23T03:38:39.374Z,7.40
2022-08-23T03:41:07.418Z,5.70
2022-08-23T03:43:35.704Z,5.87
2022-08-23T03:46:03.305Z,6.73
2022-08-23T03:48:32.701Z,6.87
2022-08-23T03:51:00.425Z,6.17
2022-08-23T03:53:28.052Z,6.27
2022-08-23T03:55:56.558Z,6.30
2022-08-23T03:58:25.542Z,6.30
2022-08-23T04:00:53.102Z,5.60
2022-08-23T04:03:20.662Z,5.70
2022-08-23T04:05:49.593Z,6.27
2022-08-23T04:08:18.094Z,5.90
2022-08-23T04:10:55.919Z,5.87
2022-08-23T04:13:24.715Z,6.80
2022-08-23T04:15:55.051Z,6.33
2022-08-23T04:18:22.645Z,5.80
2022-08-23T04:20:52.605Z,6.63
2022-08-23T04:23:20.437Z,6.70
2022-08-23T04:25:48.464Z,6.40
2022-08-23T04:28:16.043Z,6.03
2022-08-23T04:30:45.581Z,6.50
2022-08-23T04:33:17.845Z,6.67
2022-08-23T04:35:46.464Z,5.90
2022-08-23T04:38:24.335Z,7.43
2022-08-23T04:41:11.438Z,7.27
2022-08-23T04:43:39.457Z,6.10
2022-08-23T04:46:07.000Z,6.80
2022-08-23T04:48:35.459Z,6.53
2022-08-23T04:51:03.359Z,7.10
2022-08-23T04:53:35.129Z,6.73
2022-08-23T04:56:03.333Z,6.30
2022-08-23T04:58:31.373Z,6.60
2022-08-23T05:01:00.761Z,6.83
2022-08-23T05:03:29.647Z,6.37
2022-08-23T05:05:58.023Z,7.00
2022-08-23T05:08:26.088Z,5.97
2022-08-23T05:10:55.129Z,6.70
2022-08-23T05:13:22.694Z,6.90
2022-08-23T05:15:52.543Z,5.80
2022-08-23T05:18:20.202Z,6.47
2022-08-23T05:20:48.067Z,6.80
2022-08-23T05:23:15.696Z,6.20
2022-08-23T05:25:52.884Z,6.10
2022-08-23T05:28:23.829Z,6.43
2022-08-23T05:31:00.347Z,6.13
2022-08-23T05:33:30.993Z,5.83
2022-08-23T05:35:59.109Z,6.60
2022-08-23T05:38:27.573Z,5.80
2022-08-23T05:40:57.313Z,6.57
2022-08-23T05:43:29.884Z,7.17
2022-08-23T05:46:02.247Z,6.10
2022-08-23T05:48:32.031Z,6.40
2022-08-23T05:51:10.182Z,6.53
2022-08-23T05:53:38.368Z,7.60
2022-08-23T05:56:12.355Z,5.40
2022-08-23T05:58:41.941Z,6.20
2022-08-23T06:01:10.150Z,5.93
2022-08-23T06:03:38.130Z,8.07
2022-08-23T06:06:06.956Z,6.73
2022-08-23T06:08:34.899Z,7.20
2022-08-23T06:11:04.829Z,6.73
2022-08-23T06:13:32.871Z,6.80
2022-08-23T06:16:14.479Z,7.30
2022-08-23T06:18:42.882Z,6.67
2022-08-23T06:21:12.277Z,6.70
2022-08-23T06:23:40.232Z,8.50
2022-08-23T06:26:12.253Z,6.87
2022-08-23T06:28:50.344Z,7.50
2022-08-23T06:31:42.114Z,7.43
2022-08-23T06:34:09.978Z,6.50
2022-08-23T06:36:38.143Z,6.50
2022-08-23T06:39:06.421Z,7.17
2022-08-23T06:41:34.584Z,7.17
2022-08-23T06:44:02.465Z,7.10
2022-08-23T06:46:32.895Z,7.77
2022-08-23T06:49:01.442Z,6.77
2022-08-23T06:51:30.924Z,6.50
2022-08-23T06:54:02.900Z,7.07
2022-08-23T06:56:31.550Z,7.60
2022-08-23T06:58:59.537Z,7.23
2022-08-23T07:01:48.465Z,6.53
2022-08-23T07:04:19.237Z,7.00
2022-08-23T07:06:47.218Z,7.20
2022-08-23T07:09:15.577Z,7.33
2022-08-23T07:11:43.589Z,6.70
2022-08-23T07:14:14.940Z,7.33
2022-08-23T07:16:45.795Z,7.60
2022-08-23T07:19:13.849Z,6.50
2022-08-23T07:21:42.928Z,7.10
2022-08-23T07:24:10.672Z,7.10
2022-08-23T07:26:39.176Z,6.70
2022-08-23T07:29:07.746Z,7.17
2022-08-23T07:31:40.306Z,6.67
2022-08-23T07:34:10.271Z,7.00
2022-08-23T07:36:40.566Z,7.10
2022-08-23T07:39:09.435Z,7.50
2022-08-23T07:41:38.703Z,7.20
2022-08-23T07:44:09.304Z,7.07
2022-08-23T07:46:41.094Z,7.87
2022-08-23T07:49:11.961Z,7.70
2022-08-23T07:51:41.668Z,7.37
2022-08-23T07:54:12.577Z,6.90
2022-08-23T07:56:40.469Z,6.37
2022-08-23T07:59:08.702Z,5.93
2022-08-23T08:01:37.160Z,6.23
2022-08-23T08:04:07.849Z,5.97
2022-08-23T08:06:41.105Z,5.37
2022-08-23T08:09:09.672Z,4.43
2022-08-23T08:11:38.023Z,4.80
2022-08-23T08:14:08.004Z,5.53
2022-08-23T08:16:38.363Z,5.57
2022-08-23T08:19:08.415Z,4.60
2022-08-23T08:21:42.051Z,4.20
2022-08-23T08:24:12.767Z,4.27
2022-08-23T08:26:41.052Z,4.60
2022-08-23T08:29:10.545Z,4.67
2022-08-23T08:31:39.283Z,4.50
2022-08-23T08:34:07.581Z,3.90
2022-08-23T08:36:39.896Z,3.73
2022-08-23T08:39:11.244Z,4.03
2022-08-23T08:42:04.628Z,3.63
2022-08-23T08:44:41.266Z,4.20
2022-08-23T08:47:12.760Z,3.80
2022-08-23T08:49:53.957Z,3.83
2022-08-23T08:52:26.867Z,3.80
2022-08-23T08:55:06.502Z,2.97
2022-08-23T08:57:40.054Z,3.80
2022-08-23T09:00:13.193Z,4.23
2022-08-23T09:02:41.863Z,3.47
2022-08-23T09:05:12.693Z,3.57
2022-08-23T09:07:51.757Z,3.90
2022-08-23T09:10:36.411Z,3.70
2022-08-23T09:13:25.244Z,3.77
2022-08-23T09:16:03.468Z,3.50
2022-08-23T09:18:34.962Z,3.73
2022-08-23T09:21:06.711Z,3.90
2022-08-23T09:23:41.410Z,4.23
2022-08-23T09:26:19.640Z,4.10
2022-08-23T09:28:48.369Z,3.80
2022-08-23T09:31:37.701Z,4.40
2022-08-23T09:34:05.904Z,4.40
2022-08-23T09:36:36.145Z,4.63
2022-08-23T09:39:07.545Z,4.20
2022-08-23T09:41:38.425Z,4.30
2022-08-23T09:44:08.769Z,4.40
2022-08-23T09:46:39.141Z,4.03
2022-08-23T09:49:26.195Z,4.33
2022-08-23T09:51:55.717Z,4.37
2022-08-23T09:54:30.069Z,4.67
2022-08-23T09:56:59.794Z,4.20
2022-08-23T09:59:42.406Z,4.17
2022-08-23T10:02:17.021Z,3.10
2022-08-23T10:04:56.321Z,4.00
2022-08-23T10:07:38.294Z,4.30
2022-08-23T10:10:19.718Z,3.93
2022-08-23T10:12:47.934Z,4.67
2022-08-23T10:15:17.552Z,4.80
2022-08-23T10:17:52.949Z,3.97
2022-08-23T10:20:33.793Z,3.60
2022-08-23T10:23:12.934Z,3.43
2022-08-23T10:25:46.245Z,3.60
2022-08-23T10:28:40.974Z,5.10
2022-08-23T10:31:15.438Z,4.13
2022-08-23T10:33:47.442Z,3.93
2022-08-23T10:36:21.401Z,5.03
2022-08-23T10:38:57.377Z,4.30
2022-08-23T10:41:58.601Z,4.00
2022-08-23T10:44:35.144Z,3.90
2022-08-23T10:47:20.767Z,3.63
2022-08-23T10:49:53.061Z,3.07
2022-08-23T10:52:25.041Z,3.90
2022-08-23T10:55:06.439Z,3.53
2022-08-23T10:57:38.837Z,3.67
2022-08-23T11:00:09.459Z,3.20
2022-08-23T11:02:43.499Z,3.40
2022-08-23T11:05:20.806Z,3.83
2022-08-23T11:07:59.395Z,2.93
2022-08-23T11:10:32.441Z,3.80
2022-08-23T11:13:06.106Z,4.73
2022-08-23T11:15:44.520Z,4.20
2022-08-23T11:18:38.067Z,3.60
2022-08-23T11:21:25.481Z,3.80
2022-08-23T11:23:55.860Z,4.50
2022-08-23T11:27:06.313Z,3.80
2022-08-23T11:29:37.809Z,3.60
2022-08-23T11:32:20.766Z,3.70
2022-08-23T11:34:59.553Z,4.20
2022-08-23T11:37:31.596Z,3.70
2022-08-23T11:40:10.534Z,3.90
2022-08-23T11:42:51.133Z,3.93
2022-08-23T11:45:31.316Z,3.73
2022-08-23T11:48:14.109Z,3.83
2022-08-23T11:51:05.848Z,3.57
2022-08-23T11:53:55.821Z,3.60
2022-08-23T11:56:42.233Z,3.50
2022-08-23T11:59:41.622Z,4.30
2022-08-23T12:02:37.006Z,3.80
2022-08-23T12:05:19.438Z,3.60
2022-08-23T12:07:55.637Z,4.33
2022-08-23T12:10:45.223Z,3.83
2022-08-23T12:13:33.069Z,3.70
2022-08-23T12:16:14.716Z,4.07
2022-08-23T12:18:53.342Z,3.57
2022-08-23T12:21:26.528Z,3.70
2022-08-23T12:24:01.366Z,3.63
2022-08-23T12:26:32.982Z,3.23
2022-08-23T12:29:05.365Z,3.67
2022-08-23T12:31:38.759Z,3.83
2022-08-23T12:34:19.485Z,3.80
2022-08-23T12:36:55.921Z,3.60
2022-08-23T12:39:30.373Z,3.70
2022-08-23T12:42:03.945Z,3.90
2022-08-23T12:44:34.813Z,3.30
2022-08-23T12:47:12.594Z,4.00
2022-08-23T12:49:40.853Z,4.10
2022-08-23T12:52:10.741Z,3.80
2022-08-23T12:54:42.325Z,3.50
2022-08-23T12:57:15.929Z,4.10
2022-08-23T12:59:50.428Z,4.07
2022-08-23T13:02:29.018Z,3.93
2022-08-23T13:05:02.570Z,3.50
2022-08-23T13:07:32.151Z,3.90
2022-08-23T13:10:01.245Z,3.90
2022-08-23T13:12:29.121Z,3.67
2022-08-23T13:15:01.289Z,3.53
2022-08-23T13:17:36.536Z,3.97
2022-08-23T13:20:19.880Z,3.67
2022-08-23T13:22:58.196Z,3.30
2022-08-23T13:25:31.882Z,4.53
2022-08-23T13:28:01.293Z,3.83
2022-08-23T13:30:30.993Z,3.50
2022-08-23T13:33:21.364Z,3.50
2022-08-23T13:35:50.350Z,3.33
2022-08-23T13:38:23.979Z,3.90
2022-08-23T13:40:58.019Z,3.67
2022-08-23T13:43:31.220Z,3.87
2022-08-23T13:46:01.907Z,3.40
2022-08-23T13:48:32.897Z,3.90
2022-08-23T13:51:30.771Z,3.37
2022-08-23T13:54:00.508Z,3.73
2022-08-23T13:56:32.209Z,3.17
2022-08-23T13:59:02.481Z,3.60
2022-08-23T14:01:30.690Z,3.50
2022-08-23T14:03:58.410Z,3.87
2022-08-23T14:06:26.336Z,3.73
2022-08-23T14:08:53.925Z,3.80
2022-08-23T14:11:21.637Z,3.63
2022-08-23T14:13:50.984Z,3.20
2022-08-23T14:16:33.153Z,3.80
2022-08-23T14:19:54.307Z,3.60
2022-08-23T14:21:49.108Z,3.53
2022-08-23T14:24:19.808Z,3.50
2022-08-23T14:26:50.375Z,3.80
2022-08-23T14:29:22.707Z,3.70
2022-08-23T14:31:51.329Z,3.70
2022-08-23T14:34:19.122Z,4.63
2022-08-23T14:39:34.239Z,3.30
2022-08-23T14:42:01.943Z,3.70
2022-08-23T14:44:35.681Z,3.20
2022-08-23T14:47:04.837Z,4.43
2022-08-23T14:49:32.485Z,3.33
2022-08-23T14:52:00.264Z,3.77
2022-08-23T14:54:27.980Z,3.30
2022-08-23T14:56:55.708Z,3.43
2022-08-23T14:59:23.277Z,3.90
2022-08-23T15:01:55.541Z,3.63
2022-08-23T15:04:24.716Z,4.10
2022-08-23T15:07:16.749Z,3.50
2022-08-23T15:09:42.028Z,3.40
2022-08-23T15:12:57.201Z,3.50
2022-08-23T15:14:57.717Z,4.30
2022-08-23T15:17:31.289Z,3.80
2022-08-23T15:19:59.808Z,3.40
2022-08-23T15:22:27.343Z,3.63
2022-08-23T15:24:54.912Z,3.87
2022-08-23T15:27:23.296Z,3.30
2022-08-23T15:29:50.853Z,3.40
2022-08-23T15:32:22.267Z,3.43
2022-08-23T15:34:51.672Z,3.60
2022-08-23T15:37:21.347Z,3.20
2022-08-23T15:39:49.230Z,3.70
2022-08-23T15:42:20.516Z,3.57
2022-08-23T15:44:48.551Z,3.77
2022-08-23T15:47:21.269Z,4.23
2022-08-23T15:49:48.916Z,3.90
2022-08-23T15:52:18.333Z,3.63
2022-08-23T15:54:45.912Z,3.20
2022-08-23T15:57:17.568Z,3.90
2022-08-23T15:59:45.904Z,3.90
2022-08-23T16:02:13.586Z,4.07
2022-08-23T16:04:41.670Z,3.97
2022-08-23T16:07:11.732Z,4.20
2022-08-23T16:09:40.812Z,4.00
2022-08-23T16:12:09.274Z,3.70
2022-08-23T16:14:38.417Z,4.60
2022-08-23T16:17:06.683Z,3.97
2022-08-23T16:19:34.357Z,3.67
2022-08-23T16:22:02.238Z,3.10
2022-08-23T16:24:29.966Z,4.07
2022-08-23T16:26:58.974Z,3.67
2022-08-23T16:29:31.797Z,4.10
2022-08-23T16:31:59.532Z,4.03
2022-08-23T16:34:27.284Z,3.47
2022-08-23T16:36:58.611Z,3.60
2022-08-23T16:39:27.188Z,2.93
2022-08-23T16:41:55.089Z,3.30
2022-08-23T16:44:23.993Z,3.80
2022-08-23T16:46:52.414Z,3.53
2022-08-23T16:49:20.018Z,3.93
2022-08-23T16:51:48.131Z,3.43
2022-08-23T16:54:16.486Z,3.73
2022-08-23T16:56:44.058Z,3.63
2022-08-23T16:59:13.495Z,3.80
2022-08-23T17:01:47.804Z,3.83
2022-08-23T17:04:16.220Z,3.83
2022-08-23T17:06:43.880Z,3.07
2022-08-23T17:09:12.049Z,3.50
2022-08-23T17:11:41.530Z,3.87
2022-08-23T17:14:09.188Z,4.17
2022-08-23T17:16:37.313Z,3.33
2022-08-23T17:19:06.283Z,3.33
2022-08-23T17:21:33.865Z,3.10
2022-08-23T17:24:02.257Z,3.40
2022-08-23T17:26:29.832Z,3.60
2022-08-23T17:28:57.441Z,3.47
2022-08-23T17:31:26.942Z,4.60
2022-08-23T17:33:54.934Z,3.70
2022-08-23T17:36:33.294Z,3.57
2022-08-23T17:39:01.503Z,4.40
2022-08-23T17:41:29.268Z,3.10
2022-08-23T17:44:02.937Z,3.67
2022-08-23T17:46:30.513Z,4.00
2022-08-23T17:48:58.553Z,3.40
2022-08-23T17:51:26.513Z,3.87
2022-08-23T17:53:55.404Z,3.23
2022-08-23T17:56:23.147Z,3.70
2022-08-23T17:58:52.897Z,3.10
2022-08-23T18:01:21.819Z,3.20
2022-08-23T18:03:49.645Z,3.50
2022-08-23T18:06:17.976Z,2.93
2022-08-23T18:08:45.922Z,3.13
2022-08-23T18:11:15.800Z,3.43
2022-08-23T18:13:43.416Z,3.00
2022-08-23T18:16:11.113Z,3.23
2022-08-23T18:18:39.532Z,2.90
2022-08-23T18:21:09.112Z,3.90
2022-08-23T18:23:37.091Z,3.00
2022-08-23T18:26:07.889Z,3.20
2022-08-23T18:28:36.473Z,3.03
2022-08-23T18:31:05.892Z,3.37
2022-08-23T18:33:46.997Z,3.00
2022-08-23T18:36:15.511Z,3.00
2022-08-23T18:38:44.207Z,3.27
2022-08-23T18:41:13.030Z,3.27
2022-08-23T18:43:42.188Z,3.80
2022-08-23T18:46:11.378Z,3.20
2022-08-23T18:48:40.052Z,3.80
2022-08-23T18:51:14.056Z,3.60
2022-08-23T18:53:45.930Z,3.23
2022-08-23T18:56:13.509Z,3.53
2022-08-23T18:58:42.448Z,2.80
2022-08-23T19:01:21.943Z,3.43
2022-08-23T19:03:49.909Z,3.97
2022-08-23T19:06:17.743Z,3.57
2022-08-23T19:08:46.981Z,3.40
2022-08-23T19:11:15.683Z,4.20
2022-08-23T19:13:45.121Z,3.90
2022-08-23T19:16:14.109Z,3.03
2022-08-23T19:18:42.475Z,3.13
2022-08-23T19:21:14.544Z,3.60
2022-08-23T19:23:42.369Z,4.07
2022-08-23T19:26:10.240Z,4.17
2022-08-23T19:28:38.257Z,3.93
2022-08-23T19:31:09.346Z,4.00
2022-08-23T19:33:36.941Z,3.40
2022-08-23T19:36:06.207Z,3.60
2022-08-23T19:38:34.478Z,3.50
2022-08-23T19:41:06.261Z,3.57
2022-08-23T19:43:35.387Z,4.00
2022-08-23T19:46:13.935Z,4.20
2022-08-23T19:48:41.838Z,3.97
2022-08-23T19:51:10.310Z,3.80
2022-08-23T19:53:37.910Z,3.57
2022-08-23T19:56:08.600Z,3.90
2022-08-23T19:58:39.217Z,3.70
2022-08-23T20:01:08.584Z,3.93
2022-08-23T20:03:36.168Z,2.80
2022-08-23T20:06:03.733Z,4.50
2022-08-23T20:08:32.041Z,3.70
2022-08-23T20:11:01.389Z,3.83
2022-08-23T20:13:29.092Z,3.73
2022-08-23T20:15:56.821Z,3.57
2022-08-23T20:18:25.787Z,3.33
2022-08-23T20:20:53.986Z,3.30
2022-08-23T20:23:39.181Z,3.60
2022-08-23T20:26:09.875Z,3.30
2022-08-23T20:28:37.641Z,3.17
2022-08-23T20:31:07.780Z,3.17
2022-08-23T20:33:36.809Z,3.73
2022-08-23T20:36:04.992Z,3.27
2022-08-23T20:38:33.086Z,3.60
2022-08-23T20:41:00.835Z,3.97
2022-08-23T20:43:30.905Z,4.10
2022-08-23T20:45:58.492Z,3.20
2022-08-23T20:48:26.288Z,3.27
2022-08-23T20:50:55.178Z,3.47
2022-08-23T20:53:22.749Z,2.87
2022-08-23T20:55:50.312Z,3.03
2022-08-23T20:58:17.866Z,2.90
2022-08-23T21:00:45.452Z,3.20
2022-08-23T21:03:13.012Z,3.30
2022-08-23T21:05:40.633Z,3.23
2022-08-23T21:08:13.065Z,3.33
2022-08-23T21:10:40.778Z,3.33
2022-08-23T21:13:12.532Z,3.13
2022-08-23T21:15:40.149Z,3.43
2022-08-23T21:18:07.744Z,3.10
2022-08-23T21:20:35.306Z,3.50
2022-08-23T21:23:02.999Z,3.37
2022-08-23T21:25:32.057Z,3.70
2022-08-23T21:28:04.112Z,2.90
2022-08-23T21:30:32.120Z,3.37
2022-08-23T21:32:59.872Z,3.00
2022-08-23T21:35:27.446Z,3.20
2022-08-23T21:37:55.003Z,3.53
2022-08-23T21:40:22.896Z,3.10
2022-08-23T21:42:51.945Z,3.40
2022-08-23T21:45:19.648Z,3.87
2022-08-23T21:47:47.394Z,3.77
2022-08-23T21:50:16.101Z,3.20
2022-08-23T21:52:44.837Z,2.97
2022-08-23T21:55:22.619Z,3.10
2022-08-23T21:58:00.596Z,3.60
2022-08-23T22:00:28.199Z,2.90
2022-08-23T22:02:56.099Z,3.30
2022-08-23T22:05:23.852Z,3.27
2022-08-23T22:07:51.817Z,3.03
2022-08-23T22:10:19.924Z,3.33
2022-08-23T22:12:48.168Z,3.20
2022-08-23T22:15:18.283Z,3.00
2022-08-23T22:17:45.849Z,3.50
2022-08-23T22:20:14.270Z,3.47
2022-08-23T22:22:43.440Z,3.67
2022-08-23T22:25:12.550Z,3.23
2022-08-23T22:27:40.325Z,3.50
2022-08-23T22:30:09.164Z,4.03
2022-08-23T22:32:38.075Z,3.30
2022-08-23T22:35:06.576Z,3.33
2022-08-23T22:37:34.157Z,3.00
2022-08-23T22:40:01.877Z,4.30
2022-08-23T22:42:29.449Z,4.10
2022-08-23T22:44:57.077Z,3.00
2022-08-23T22:47:24.656Z,3.37
2022-08-23T22:49:53.704Z,3.27
2022-08-23T22:52:21.440Z,3.47
2022-08-23T22:54:49.370Z,3.00
2022-08-23T22:57:16.990Z,3.90
2022-08-23T22:59:44.671Z,3.77
2022-08-23T23:02:12.621Z,3.73
2022-08-23T23:04:42.556Z,3.40
2022-08-23T23:07:11.843Z,3.87
2022-08-23T23:09:38.434Z,3.30
2022-08-23T23:12:06.220Z,2.97
2022-08-23T23:14:34.540Z,3.67
2022-08-23T23:17:02.152Z,4.03
2022-08-23T23:19:47.393Z,3.60
2022-08-23T23:22:16.321Z,3.83
2022-08-23T23:24:43.884Z,3.73
2022-08-23T23:27:11.625Z,3.40
2022-08-23T23:29:39.199Z,3.73
2022-08-23T23:32:07.148Z,3.37
2022-08-23T23:34:34.894Z,3.53
2022-08-23T23:37:02.518Z,3.00
2022-08-23T23:39:31.562Z,3.27
2022-08-23T23:41:59.430Z,3.10
2022-08-23T23:44:30.829Z,2.97
2022-08-23T23:46:59.684Z,2.80
2022-08-23T23:49:32.473Z,3.47
2022-08-23T23:52:01.326Z,2.90
2022-08-23T23:54:28.917Z,3.13
2022-08-23T23:56:57.874Z,3.07
2022-08-23T23:59:26.373Z,3.27
